Time;durP1;ratioP1;P1;durP2;ratioP2;P2;SDS_P1;SDS_P2;PMS_P1;PMS_P2;Temp;Humidity;BMP_temperature;BMP_pressure;BME280_temperature;BME280_humidity;BME280_pressure;Samples;Min_cycle;Max_cycle;Signal;HPM_P1;HPM_P2
2022/05/13 00:01:39;;;;;;;42.85;20.52;;;;;;;28.30;60.82;97136.22;4911212;29;20047;-66
2022/05/13 00:04:21;;;;;;;36.78;18.83;;;;;;;28.31;57.28;97137.03;4911110;29;20055;-66
2022/05/13 00:07:11;;;;;;;44.00;19.02;;;;;;;28.24;56.98;97147.59;4913954;29;20118;-66
2022/05/13 00:10:06;;;;;;;54.25;22.10;;;;;;;28.24;57.24;97157.38;4892506;29;20135;-66
2022/05/13 00:12:49;;;;;;;53.58;21.75;;;;;;;28.27;54.55;97146.38;4897277;29;20099;-66
2022/05/13 00:15:44;;;;;;;46.75;19.88;;;;;;;28.33;53.43;97149.06;4901653;29;20059;-65
2022/05/13 00:18:26;;;;;;;42.97;19.40;;;;;;;28.36;54.91;97148.66;4908231;29;20044;-66
2022/05/13 00:21:15;;;;;;;43.97;20.20;;;;;;;28.41;53.35;97148.91;4900752;29;20061;-65
2022/05/13 00:24:04;;;;;;;41.95;17.95;;;;;;;28.48;55.03;97149.78;4902350;29;20784;-66
2022/05/13 00:26:46;;;;;;;41.90;21.35;;;;;;;28.49;53.20;97155.88;4892138;29;20737;-65
2022/05/13 00:29:35;;;;;;;54.25;21.15;;;;;;;28.50;52.65;97160.16;4891063;29;20052;-65
2022/05/13 00:32:20;;;;;;;49.78;21.30;;;;;;;28.49;53.19;97162.00;4889710;29;20052;-65
2022/05/13 00:35:10;;;;;;;48.65;21.00;;;;;;;28.51;54.31;97167.91;4891943;29;20591;-66
2022/05/13 00:37:52;;;;;;;49.90;23.90;;;;;;;28.49;53.91;97172.59;4901218;29;20051;-66
2022/05/13 00:40:42;;;;;;;46.20;22.02;;;;;;;28.52;53.86;97177.50;4926565;29;20420;-65
2022/05/13 00:43:51;;;;;;;42.38;21.02;;;;;;;28.52;52.71;97185.44;4909095;29;20806;-66
2022/05/13 00:46:40;;;;;;;54.20;23.25;;;;;;;28.55;51.18;97182.41;4910822;29;20498;-65
2022/05/13 00:49:23;;;;;;;54.55;23.55;;;;;;;28.57;52.75;97184.88;4909554;29;20050;-65
2022/05/13 00:52:12;;;;;;;49.20;19.83;;;;;;;28.61;53.73;97185.28;4910126;29;20067;-66
2022/05/13 00:54:56;;;;;;;48.53;22.27;;;;;;;28.65;53.27;97194.50;4910715;29;20052;-64
2022/05/13 00:57:45;;;;;;;53.00;22.15;;;;;;;28.71;52.95;97199.00;4910525;29;20114;-66
2022/05/13 01:00:36;;;;;;;43.15;21.05;;;;;;;28.72;55.83;97195.34;4910028;29;20126;-66
2022/05/13 01:03:26;;;;;;;47.30;21.48;;;;;;;28.75;53.02;97203.72;4910350;29;20051;-66
2022/05/13 01:06:27;;;;;;;52.58;20.55;;;;;;;28.81;54.10;97204.81;4909680;29;20100;-66
2022/05/13 01:09:03;;;;;;;44.38;20.02;;;;;;;28.89;52.71;97215.25;4901910;29;20052;-65
2022/05/13 01:11:59;;;;;;;42.92;20.20;;;;;;;28.93;54.23;97216.47;4903405;29;20080;-65
2022/05/13 01:14:51;;;;;;;39.22;21.17;;;;;;;29.01;53.34;97218.13;4910290;28;20468;-65
2022/05/13 01:18:24;;;;;;;44.13;18.98;;;;;;;29.11;53.92;97216.75;4907359;29;20048;-66
2022/05/13 01:20:56;;;;;;;45.20;19.67;;;;;;;29.23;53.61;97215.16;4896631;29;20041;-67
2022/05/13 01:23:45;;;;;;;44.92;19.88;;;;;;;29.31;54.50;97224.75;4896303;29;20064;-67
2022/05/13 01:26:30;;;;;;;33.17;18.17;;;;;;;29.35;57.88;97227.84;4913092;28;20127;-66
2022/05/13 01:29:19;;;;;;;45.25;18.90;;;;;;;29.39;57.16;97237.06;4900811;29;20796;-67
2022/05/13 01:32:08;;;;;;;43.22;18.48;;;;;;;29.49;57.00;97237.50;4899632;29;20139;-66
2022/05/13 01:34:50;;;;;;;38.28;18.88;;;;;;;29.58;58.83;97237.13;4898140;29;20048;-66
2022/05/13 01:37:40;;;;;;;40.47;18.55;;;;;;;29.66;58.23;97239.59;4899180;29;20056;-66
2022/05/13 01:40:22;;;;;;;40.70;18.63;;;;;;;29.78;55.87;97242.44;4899070;29;20063;-66
2022/05/13 01:43:12;;;;;;;38.60;17.00;;;;;;;29.83;54.77;97245.34;4900937;29;20493;-68
2022/05/13 01:45:55;;;;;;;47.25;20.08;;;;;;;29.99;54.86;97252.94;4900621;29;20108;-66
2022/05/13 01:48:45;;;;;;;36.10;17.95;;;;;;;30.30;55.30;97247.00;4890338;29;20069;-67
2022/05/13 01:51:33;;;;;;;35.38;17.77;;;;;;;30.47;55.06;97258.03;4896338;29;20083;-67
2022/05/13 01:54:22;;;;;;;44.47;19.75;;;;;;;30.61;53.62;97265.00;4896623;29;20051;-66
2022/05/13 01:57:05;;;;;;;45.40;19.48;;;;;;;30.86;55.22;97261.66;4899980;29;20048;-67
2022/05/13 01:59:55;;;;;;;35.50;18.83;;;;;;;31.39;54.13;97265.78;4897766;29;20766;-67
2022/05/13 02:05:52;;;;;;;43.67;19.13;;;;;;;31.79;53.96;97274.41;4899682;29;20049;-67
2022/05/13 02:08:42;;;;;;;42.60;19.08;;;;;;;31.91;52.51;97277.22;4902941;29;20041;-67
2022/05/13 02:11:25;;;;;;;32.67;19.13;;;;;;;32.13;53.27;97280.31;4897460;29;20054;-67
2022/05/13 02:14:22;;;;;;;44.95;21.17;;;;;;;32.43;51.78;97288.50;4898252;29;20084;-67
2022/05/13 02:16:58;;;;;;;47.22;20.00;;;;;;;32.48;52.69;97288.69;4902033;29;20048;-67
2022/05/13 02:19:46;;;;;;;30.95;19.08;;;;;;;32.43;55.05;97300.00;4901043;29;20060;-67
2022/05/13 02:22:28;;;;;;;34.83;18.98;;;;;;;33.00;53.74;97303.38;4903114;29;20581;-67
2022/05/13 02:25:25;;;;;;;34.55;19.70;;;;;;;32.87;51.69;97309.69;4903596;29;20063;-68
2022/05/13 02:28:14;;;;;;;36.35;19.55;;;;;;;33.04;51.26;97309.91;4901981;29;20048;-67
2022/05/13 02:31:05;;;;;;;42.40;18.92;;;;;;;33.15;50.99;97321.69;4902459;29;20119;-68
2022/05/13 02:33:47;;;;;;;46.58;20.88;;;;;;;32.96;52.49;97324.38;4915124;29;20058;-67
2022/05/13 02:36:36;;;;;;;39.97;19.23;;;;;;;33.61;50.64;97331.84;4906032;29;20063;-67
2022/05/13 02:39:18;;;;;;;33.63;19.35;;;;;;;33.43;49.97;97330.84;4902383;29;20041;-67
2022/05/13 02:42:07;;;;;;;30.67;18.35;;;;;;;33.23;51.74;97332.09;4904240;29;20699;-65
2022/05/13 02:44:50;;;;;;;38.25;19.25;;;;;;;33.69;52.05;97340.38;4902900;29;20056;-68
2022/05/13 02:47:38;;;;;;;38.25;19.23;;;;;;;33.30;50.57;97332.84;4901466;29;20056;-66
2022/05/13 02:50:27;;;;;;;32.70;19.40;;;;;;;33.47;51.74;97347.22;4903879;29;20056;-66
2022/05/13 02:53:09;;;;;;;41.63;19.60;;;;;;;33.30;51.34;97340.84;4903042;29;20818;-66
2022/05/13 02:56:06;;;;;;;34.47;19.27;;;;;;;34.08;52.16;97346.25;4901496;29;20132;-66
2022/05/13 02:58:42;;;;;;;41.13;20.65;;;;;;;33.61;51.68;97342.53;4903496;29;20048;-66
2022/05/13 03:01:36;;;;;;;40.78;20.02;;;;;;;33.98;50.73;97344.13;4902639;29;20053;-66
2022/05/13 03:04:25;;;;;;;37.60;18.52;;;;;;;34.39;51.43;97346.03;4902935;29;20044;-66
2022/05/13 03:07:07;;;;;;;56.28;21.88;;;;;;;33.59;52.23;97345.47;4902864;29;20060;-66
2022/05/13 03:09:56;;;;;;;31.05;18.50;;;;;;;34.32;51.80;97350.66;4901583;29;20052;-69
2022/05/13 03:12:39;;;;;;;37.80;19.00;;;;;;;34.68;48.81;97355.00;4897878;29;20060;-66
2022/05/13 03:15:29;;;;;;;41.50;19.65;;;;;;;34.37;53.83;97342.75;4892748;29;20061;-66
2022/05/13 03:18:10;;;;;;;38.88;19.38;;;;;;;35.15;50.11;97352.34;4895524;29;20463;-68
2022/05/13 03:20:59;;;;;;;35.58;18.65;;;;;;;34.94;48.50;97345.75;4911847;29;20048;-66
2022/05/13 03:23:44;;;;;;;43.10;18.95;;;;;;;35.48;49.12;97349.88;4905552;29;20143;-66
2022/05/13 03:26:39;;;;;;;30.70;17.95;;;;;;;35.41;49.97;97348.38;4909089;28;20044;-66
2022/05/13 03:29:30;;;;;;;42.33;20.35;;;;;;;35.85;49.69;97361.06;4911356;29;20048;-66
2022/05/13 03:32:18;;;;;;;39.95;18.67;;;;;;;35.60;50.35;97358.69;4906178;29;20147;-67
2022/05/13 03:35:00;;;;;;;37.83;18.92;;;;;;;35.36;51.50;97357.09;4890527;29;20394;-66
2022/05/13 03:37:50;;;;;;;44.72;19.02;;;;;;;35.34;49.40;97353.06;4892705;29;20132;-65
2022/05/13 03:40:39;;;;;;;35.65;20.13;;;;;;;35.38;49.38;97354.19;4892534;29;20049;-66
2022/05/13 03:43:22;;;;;;;41.20;19.05;;;;;;;35.62;50.48;97351.22;4892069;29;20056;-64
2022/05/13 03:46:11;;;;;;;42.85;18.40;;;;;;;35.73;50.56;97351.47;4892876;29;20056;-66
2022/05/13 03:48:55;;;;;;;40.78;19.50;;;;;;;36.19;54.57;97350.47;4892741;29;20072;-66
2022/05/13 03:51:44;;;;;;;39.20;18.65;;;;;;;36.07;50.03;97352.38;4892430;29;20048;-67
2022/05/13 03:54:33;;;;;;;40.30;18.83;;;;;;;36.00;50.58;97356.00;4892240;29;20627;-66
2022/05/13 03:57:15;;;;;;;30.58;19.23;;;;;;;36.76;51.09;97365.41;4901287;28;20047;-68
2022/05/13 04:00:05;;;;;;;55.63;20.30;;;;;;;36.01;48.22;97352.25;4911684;29;20059;-64
2022/05/13 04:02:55;;;;;;;48.33;22.27;;;;;;;36.16;49.78;97356.28;4906356;29;20052;-69
2022/05/13 04:08:56;;;;;;;37.53;19.98;;;;;;;35.66;50.33;97352.38;4909552;29;20068;-66
2022/05/13 04:17:56;;;;;;;53.53;20.65;;;;;;;36.20;47.84;97358.28;4902485;29;20067;-66
2022/05/13 04:20:47;;;;;;;41.72;19.40;;;;;;;36.32;49.97;97360.91;4907667;29;20056;-66
2022/05/13 04:23:37;;;;;;;48.20;20.02;;;;;;;36.25;48.18;97361.03;4907363;29;20080;-65
2022/05/13 04:26:26;;;;;;;33.50;19.02;;;;;;;36.32;49.05;97359.00;4910496;29;20127;-67
2022/05/13 04:29:22;;;;;;;33.80;20.90;;;;;;;36.94;47.33;97358.16;4899906;29;20135;-67
2022/05/13 04:31:58;;;;;;;42.00;19.95;;;;;;;36.61;47.80;97354.41;4900819;29;20044;-67
2022/05/13 04:34:46;;;;;;;36.87;20.57;;;;;;;36.56;47.70;97351.63;4901627;29;20048;-66
2022/05/13 04:37:37;;;;;;;34.70;19.55;;;;;;;37.25;49.70;97357.53;4902498;29;20100;-67
2022/05/13 04:40:19;;;;;;;39.08;20.08;;;;;;;37.47;48.45;97352.97;4903225;29;20044;-67
2022/05/13 04:43:08;;;;;;;34.95;19.67;;;;;;;37.07;49.66;97349.72;4902988;29;20056;-68
2022/05/13 04:45:50;;;;;;;39.22;19.77;;;;;;;36.98;48.84;97357.41;4900768;29;20620;-67
2022/05/13 04:48:39;;;;;;;42.90;19.05;;;;;;;37.58;49.27;97348.53;4899162;29;20714;-67
2022/05/13 04:51:22;;;;;;;53.22;20.23;;;;;;;37.01;47.12;97348.84;4891385;29;20524;-66
2022/05/13 04:54:11;;;;;;;47.70;20.15;;;;;;;37.24;47.57;97342.47;4891485;29;20053;-67
2022/05/13 04:56:53;;;;;;;;;;;;;;;36.57;46.77;97339.81;4892110;29;20041;-65
2022/05/13 04:59:41;;;;;;;47.88;20.35;;;;;;;36.96;47.95;97337.22;4890643;29;19927;-66
2022/05/13 05:02:23;;;;;;;46.03;21.48;;;;;;;37.74;46.36;97344.19;4899039;29;20540;-66
2022/05/13 05:05:12;;;;;;;47.88;21.10;;;;;;;37.78;49.69;97337.22;4897261;29;20047;-67
2022/05/13 05:07:54;;;;;;;43.05;20.55;;;;;;;37.79;48.62;97341.53;4898821;29;20072;-67
2022/05/13 05:10:44;;;;;;;37.78;20.15;;;;;;;37.96;45.62;97344.97;4900434;29;20056;-68
2022/05/13 05:13:37;;;;;;;39.00;21.15;;;;;;;38.14;47.64;97336.56;4905934;29;20078;-66
2022/05/13 05:16:26;;;;;;;51.25;20.23;;;;;;;38.18;47.47;97334.16;4898503;29;20158;-67
2022/05/13 05:19:08;;;;;;;30.63;18.07;;;;;;;38.23;44.88;97342.31;4894561;29;20049;-67
2022/05/13 05:21:58;;;;;;;41.75;18.70;;;;;;;38.24;44.77;97338.50;4901191;29;20055;-67
2022/05/13 05:24:40;;;;;;;;;;;;;;;38.05;45.58;97338.09;4906762;29;20073;-67
2022/05/13 05:27:28;;;;;;;34.03;17.40;;;;;;;38.42;46.70;97331.94;4889523;29;20692;-65
2022/05/13 05:30:17;;;;;;;36.28;18.77;;;;;;;38.67;45.42;97329.47;4890704;29;20044;-68
2022/05/13 05:33:06;;;;;;;32.95;17.77;;;;;;;38.37;43.71;97334.59;4898118;29;20420;-67
2022/05/13 05:35:56;;;;;;;34.22;18.17;;;;;;;38.61;45.35;97330.53;4905141;29;20056;-67
2022/05/13 05:38:38;;;;;;;;;;;;;;;38.40;41.91;97329.50;4898685;29;20052;-67
2022/05/13 05:41:27;;;;;;;33.60;17.92;;;;;;;38.55;43.88;97326.16;4907664;29;19942;-67
2022/05/13 05:44:10;;;;;;;53.42;21.42;;;;;;;38.45;46.50;97326.06;4895959;29;20513;-68
2022/05/13 05:46:59;;;;;;;31.25;18.08;;;;;;;38.47;42.81;97324.75;4905448;29;20056;-67
2022/05/13 05:49:42;;;;;;;37.70;17.60;;;;;;;38.45;46.50;97321.47;4904088;29;20143;-65
2022/05/13 05:52:38;;;;;;;35.30;17.80;;;;;;;38.64;46.42;97319.22;4895311;29;20072;-69
2022/05/13 05:58:22;;;;;;;36.53;17.90;;;;;;;38.72;41.50;97318.72;4902308;29;20051;-68
2022/05/13 06:01:05;;;;;;;37.05;18.45;;;;;;;38.18;42.34;97316.13;4899908;29;20480;-68
2022/05/13 06:04:01;;;;;;;35.47;18.08;;;;;;;38.41;45.96;97316.84;4898952;29;20064;-68
2022/05/13 06:06:37;;;;;;;31.92;16.67;;;;;;;38.46;41.23;97315.03;4906190;29;20055;-67
2022/05/13 06:09:32;;;;;;;;;;;;;;;38.23;40.58;97313.50;4896082;29;20135;-68
2022/05/13 06:12:27;;;;;;;37.50;16.92;;;;;;;38.02;41.17;97316.22;4901973;29;19926;-68
2022/05/13 06:15:03;;;;;;;33.78;18.55;;;;;;;38.38;46.33;97314.69;4906835;29;20051;-67
2022/05/13 06:17:53;;;;;;;;;;;;;;;38.58;46.84;97302.22;4903059;29;20055;-67
2022/05/13 06:20:37;;;;;;;35.20;17.02;;;;;;;38.81;42.89;97314.47;4906553;29;19927;-67
2022/05/13 06:23:26;;;;;;;33.40;16.10;;;;;;;38.73;41.16;97306.06;4909559;29;20076;-68
2022/05/13 06:26:10;;;;;;;34.20;15.38;;;;;;;38.48;39.73;97309.38;4909422;29;20048;-68
2022/05/13 06:29:06;;;;;;;29.60;15.95;;;;;;;38.79;46.48;97311.25;4908989;29;20756;-68
2022/05/13 06:31:42;;;;;;;34.72;15.73;;;;;;;38.79;44.43;97305.88;4896285;29;20135;-68
2022/05/13 06:34:32;;;;;;;;;;;;;;;38.96;46.06;97294.94;4891395;29;20044;-67
2022/05/13 06:37:14;;;;;;;31.90;16.73;;;;;;;38.96;44.90;97293.03;4895792;29;19927;-67
2022/05/13 06:40:04;;;;;;;33.83;16.23;;;;;;;38.74;43.88;97295.03;4925536;29;20047;-67
2022/05/13 06:42:54;;;;;;;37.20;16.27;;;;;;;38.69;38.90;97302.28;4905745;29;20063;-67
2022/05/13 06:45:36;;;;;;;36.10;17.00;;;;;;;38.55;40.55;97293.84;4899671;29;20048;-66
2022/05/13 06:48:25;;;;;;;29.10;18.00;;;;;;;38.68;42.05;97298.78;4894229;29;20059;-67
2022/05/13 06:51:07;;;;;;;30.00;15.23;;;;;;;39.04;41.67;97291.72;4890822;29;20048;-67
2022/05/13 06:53:56;;;;;;;44.35;17.88;;;;;;;38.35;38.62;97283.72;4890881;29;20439;-67
2022/05/13 06:56:44;;;;;;;34.97;18.50;;;;;;;38.64;41.29;97284.19;4890651;29;20139;-67
2022/05/13 06:59:32;;;;;;;34.03;18.08;;;;;;;38.87;40.70;97283.84;4890756;29;20064;-67
2022/05/13 07:02:18;;;;;;;44.58;19.55;;;;;;;38.88;41.68;97276.53;4895518;29;20049;-67
2022/05/13 07:05:07;;;;;;;37.50;21.08;;;;;;;38.66;39.18;97276.69;4906604;29;20052;-67
2022/05/13 07:07:50;;;;;;;42.97;20.83;;;;;;;38.72;42.40;97281.03;4900099;29;20135;-67
2022/05/13 07:10:39;;;;;;;45.40;19.48;;;;;;;38.92;43.81;97262.28;4893557;29;20476;-67
2022/05/13 07:13:21;;;;;;;;;;;;;;;38.85;42.45;97269.81;4893851;29;20040;-67
2022/05/13 07:16:09;;;;;;;39.38;19.25;;;;;;;38.91;40.58;97265.25;4900955;29;19923;-68
2022/05/13 07:19:00;;;;;;;31.77;19.13;;;;;;;38.91;40.43;97266.06;4914243;29;20048;-66
2022/05/13 07:21:43;;;;;;;38.70;20.30;;;;;;;38.95;42.24;97255.59;4906351;29;20059;-65
2022/05/13 07:24:38;;;;;;;46.95;20.33;;;;;;;38.94;40.02;97254.78;4899331;29;20040;-67
2022/05/13 07:27:26;;;;;;;41.58;20.42;;;;;;;39.27;41.93;97252.78;4902388;29;20330;-66
2022/05/13 07:30:23;;;;;;;40.72;20.27;;;;;;;39.21;38.92;97253.81;4906068;29;20090;-65
2022/05/13 07:33:13;;;;;;;40.67;18.63;;;;;;;39.27;39.99;97252.78;4909766;29;20123;-67
2022/05/13 07:36:03;;;;;;;41.35;20.73;;;;;;;39.08;36.54;97240.84;4902244;29;20485;-67
2022/05/13 07:41:16;;;;;;;;;;;;;;;39.37;40.04;97250.09;4900319;29;20052;-66
2022/05/13 07:41:52;;;;;;;57.22;18.40;;;;;;;39.39;40.98;97239.88;4898446;29;19935;-66
2022/05/13 07:44:35;;;;;;;30.25;15.90;;;;;;;39.23;36.90;97228.22;4911739;29;20052;-67
2022/05/13 07:47:25;;;;;;;35.58;15.82;;;;;;;39.06;37.03;97226.81;4897828;29;20828;-66
2022/05/13 07:50:08;;;;;;;32.90;13.57;;;;;;;39.14;33.94;97221.72;4927744;29;20043;-67
2022/05/13 07:52:57;;;;;;;30.67;12.75;;;;;;;39.21;33.74;97222.28;4925610;29;20047;-67
2022/05/13 07:55:39;;;;;;;26.20;12.87;;;;;;;39.12;33.18;97218.47;4906856;29;20051;-66
2022/05/13 07:58:28;;;;;;;26.13;13.02;;;;;;;39.21;36.99;97211.50;4911469;29;20051;-66
2022/05/13 08:01:10;;;;;;;24.10;13.65;;;;;;;39.03;37.16;97215.47;4911130;29;20048;-66
2022/05/13 08:03:59;;;;;;;34.22;15.38;;;;;;;39.12;43.17;97196.91;4917621;29;20056;-67
2022/05/13 08:06:44;;;;;;;26.42;16.15;;;;;;;39.05;37.01;97199.03;4919362;29;20055;-66
2022/05/13 08:09:33;;;;;;;30.85;14.70;;;;;;;39.02;37.15;97197.72;4900434;29;20049;-67
2022/05/13 08:12:15;;;;;;;36.95;13.43;;;;;;;39.08;39.75;97192.31;4908212;29;20364;-67
2022/05/13 08:15:04;;;;;;;34.50;14.43;;;;;;;39.07;36.51;97193.41;4911157;29;20059;-67
2022/05/13 08:17:47;;;;;;;47.20;15.38;;;;;;;39.07;35.90;97182.63;4899274;29;20063;-67
2022/05/13 08:20:35;;;;;;;27.02;13.27;;;;;;;39.24;36.26;97177.81;4898090;29;20508;-68
2022/05/13 08:23:18;;;;;;;29.85;14.25;;;;;;;39.35;39.15;97172.16;4890407;29;20432;-67
2022/05/13 08:26:08;;;;;;;25.23;13.63;;;;;;;39.19;37.93;97165.16;4891574;29;20119;-67
2022/05/13 08:28:56;;;;;;;;;;;;;;;39.13;35.82;97166.19;4904595;28;20067;-68
2022/05/13 08:31:51;;;;;;;36.15;15.07;;;;;;;39.24;37.44;97157.06;4928660;29;19989;-68
2022/05/13 08:34:40;;;;;;;32.33;14.98;;;;;;;39.29;36.06;97156.25;4897886;29;20104;-67
2022/05/13 08:37:57;;;;;;;45.67;14.73;;;;;;;39.23;36.79;97150.06;4892173;29;20053;-67
2022/05/13 08:40:52;;;;;;;43.15;15.30;;;;;;;39.20;36.64;97141.69;4926557;29;20531;-67
2022/05/13 08:43:49;;;;;;;30.92;14.25;;;;;;;39.16;34.51;97132.53;4911012;29;20053;-68
2022/05/13 08:46:55;;;;;;;31.52;14.82;;;;;;;39.10;38.08;97136.28;4895495;29;20052;-67
2022/05/13 08:50:06;;;;;;;44.20;15.18;;;;;;;39.04;33.85;97125.47;4892122;29;20045;-67
2022/05/13 08:53:19;;;;;;;38.78;15.40;;;;;;;39.03;39.22;97113.06;4892395;29;20536;-67
2022/05/13 08:56:21;;;;;;;27.80;14.60;;;;;;;38.99;36.95;97106.63;4891212;29;20049;-67
2022/05/13 08:59:22;;;;;;;64.75;16.98;;;;;;;39.04;38.94;97103.94;4892264;29;20467;-67
2022/05/13 09:02:22;;;;;;;49.15;18.65;;;;;;;38.95;36.14;97094.75;4894988;29;20060;-67
2022/05/13 09:05:17;;;;;;;53.28;16.58;;;;;;;38.91;38.78;97092.81;4909627;29;20056;-66
2022/05/13 09:08:06;;;;;;;32.40;16.67;;;;;;;38.92;38.05;97089.88;4909898;29;20060;-68
2022/05/13 09:11:08;;;;;;;;;;;;;;;38.88;34.97;97082.56;4911429;29;20048;-67
2022/05/13 09:14:03;;;;;;;24.30;13.25;;;;;;;38.76;36.10;97082.00;4910475;29;19927;-66
2022/05/13 09:17:28;;;;;;;29.90;13.23;;;;;;;38.87;35.11;97073.72;4909061;29;20059;-68
2022/05/13 09:20:10;;;;;;;36.17;14.23;;;;;;;38.89;34.68;97068.84;4893823;29;20056;-68
2022/05/13 09:22:59;;;;;;;26.20;12.80;;;;;;;38.90;32.79;97070.47;4900581;29;20056;-68
2022/05/13 09:25:54;;;;;;;42.92;12.63;;;;;;;39.01;32.49;97074.03;4900367;29;20093;-67
2022/05/13 09:28:57;;;;;;;23.00;11.98;;;;;;;38.98;33.38;97072.66;4901636;29;20475;-66
2022/05/13 09:32:07;;;;;;;27.88;13.35;;;;;;;39.16;31.27;97067.84;4899524;29;20051;-70
2022/05/13 09:35:08;;;;;;;24.85;12.80;;;;;;;39.07;32.36;97064.88;4901242;29;20063;-68
2022/05/13 09:37:57;;;;;;;26.27;13.30;;;;;;;39.21;30.27;97055.16;4899469;29;20048;-68
2022/05/13 09:40:39;;;;;;;29.98;12.43;;;;;;;39.24;30.56;97048.44;4902394;29;20060;-67
2022/05/13 09:43:50;;;;;;;31.38;12.13;;;;;;;39.11;32.48;97043.59;4900975;29;20566;-68
2022/05/13 09:46:51;;;;;;;29.85;11.88;;;;;;;39.07;34.10;97037.09;4899268;29;20049;-66
2022/05/13 09:49:38;;;;;;;29.80;12.57;;;;;;;39.01;33.50;97031.72;4903254;29;20052;-67
2022/05/13 09:52:35;;;;;;;26.73;12.25;;;;;;;38.95;32.44;97030.06;4904252;29;20118;-66
2022/05/13 09:55:30;;;;;;;23.30;11.90;;;;;;;38.97;32.03;97024.44;4898796;29;20536;-68
2022/05/13 09:58:31;;;;;;;29.00;12.73;;;;;;;38.94;32.24;97011.50;4901011;29;20478;-67
2022/05/13 10:01:16;;;;;;;28.85;11.98;;;;;;;38.86;34.17;97015.50;4915223;29;20377;-67
2022/05/13 10:04:14;;;;;;;25.65;11.57;;;;;;;38.84;30.89;97006.06;4900860;29;20371;-68
2022/05/13 10:07:08;;;;;;;27.90;11.25;;;;;;;38.85;31.10;97000.44;4899829;29;20048;-67
2022/05/13 10:16:45;;;;;;;23.00;10.68;;;;;;;38.92;31.37;96994.78;4903202;28;20054;-67
2022/05/13 10:19:38;;;;;;;31.55;10.43;;;;;;;38.91;29.76;96985.88;4897199;29;20480;-66
2022/05/13 10:22:40;;;;;;;26.48;10.90;;;;;;;38.82;32.10;96976.72;4896923;29;20059;-66
2022/05/13 10:25:49;;;;;;;31.77;11.35;;;;;;;38.78;31.40;96989.09;4897162;29;20052;-68
2022/05/13 10:28:45;;;;;;;20.52;11.15;;;;;;;38.90;30.57;96980.75;4902998;29;20049;-68
2022/05/13 10:31:46;;;;;;;31.10;11.05;;;;;;;38.82;30.07;96973.19;4892954;29;20072;-68
2022/05/13 10:34:48;;;;;;;23.30;11.23;;;;;;;38.71;31.64;96967.03;4899476;29;20540;-67
2022/05/13 10:37:30;;;;;;;41.65;11.93;;;;;;;38.68;29.80;96959.47;4901565;29;20087;-68
2022/05/13 10:40:20;;;;;;;23.63;12.05;;;;;;;38.55;31.38;96966.19;4901200;29;20152;-67
2022/05/13 10:43:25;;;;;;;27.05;13.52;;;;;;;38.49;31.94;96964.50;4903585;29;20405;-68
2022/05/13 10:46:51;;;;;;;22.42;11.45;;;;;;;38.43;31.74;96954.81;4899436;29;20071;-66
2022/05/13 10:49:45;;;;;;;31.80;12.52;;;;;;;38.48;30.72;96954.81;4902671;29;20147;-66
2022/05/13 10:52:52;;;;;;;30.88;12.55;;;;;;;38.39;32.83;96944.84;4903022;29;20552;-67
2022/05/13 10:55:32;;;;;;;28.70;11.25;;;;;;;38.39;31.45;96944.84;4903591;29;20052;-67
2022/05/13 10:59:04;;;;;;;36.67;11.53;;;;;;;38.48;31.51;96948.63;4903017;29;20163;-66
2022/05/13 11:02:04;;;;;;;21.08;10.45;;;;;;;38.56;30.45;96945.44;4877533;29;20291;-67
2022/05/13 11:05:14;;;;;;;20.58;10.60;;;;;;;38.53;29.62;96945.97;4902044;29;20124;-66
2022/05/13 11:08:24;;;;;;;24.58;9.43;;;;;;;38.61;28.13;96942.75;4911057;29;20075;-66
2022/05/13 11:11:27;;;;;;;26.70;10.32;;;;;;;38.51;28.78;96948.13;4912904;29;20048;-66
2022/05/13 11:14:34;;;;;;;24.92;8.23;;;;;;;38.49;28.05;96944.84;4912690;29;20076;-67
2022/05/13 11:17:45;;;;;;;20.70;8.07;;;;;;;38.47;27.91;96944.34;4908459;29;20052;-67
2022/05/13 11:20:43;;;;;;;16.92;7.35;;;;;;;38.46;28.19;96934.63;4902055;29;20056;-66
2022/05/13 11:23:37;;;;;;;26.58;9.95;;;;;;;38.42;27.37;96933.53;4919628;29;20535;-65
2022/05/13 11:26:36;;;;;;;19.08;7.85;;;;;;;38.33;29.25;96935.13;4920305;29;20051;-67
2022/05/13 11:29:26;;;;;;;21.42;8.70;;;;;;;38.21;28.49;96927.31;4913563;29;20048;-67
2022/05/13 11:32:47;;;;;;;18.77;8.45;;;;;;;38.20;28.26;96939.16;4900219;29;20171;-66
2022/05/13 11:35:47;;;;;;;25.08;7.47;;;;;;;38.13;26.88;96933.22;4859343;29;20060;-65
2022/05/13 11:39:02;;;;;;;18.73;7.70;;;;;;;38.10;26.88;96936.41;4867579;29;20064;-65
2022/05/13 11:42:02;;;;;;;23.52;7.63;;;;;;;38.10;28.38;96933.72;4861535;29;20144;-66
2022/05/13 11:45:24;;;;;;;27.63;7.35;;;;;;;37.99;25.61;96930.19;4865605;29;20077;-68
2022/05/13 11:48:28;;;;;;;20.38;6.18;;;;;;;38.07;25.23;96931.59;4866694;29;20060;-65
2022/05/13 11:51:31;;;;;;;19.15;6.07;;;;;;;38.08;24.91;96925.09;4864124;29;20056;-66
2022/05/13 11:54:20;;;;;;;27.38;6.10;;;;;;;38.04;25.44;96921.31;4865009;29;20048;-68
2022/05/13 11:57:25;;;;;;;18.40;6.07;;;;;;;37.94;24.93;96924.75;4867200;29;20053;-67
2022/05/13 12:00:26;;;;;;;19.58;5.20;;;;;;;37.88;26.05;96923.94;4862529;29;20054;-67
2022/05/13 12:03:18;;;;;;;22.90;5.72;;;;;;;37.80;26.19;96916.38;4862904;29;20072;-66
2022/05/13 12:06:11;;;;;;;19.83;5.15;;;;;;;37.78;25.56;96917.72;4860359;29;20615;-67
2022/05/13 12:09:09;;;;;;;16.17;5.10;;;;;;;37.66;25.77;96911.75;4867489;29;20057;-67
2022/05/13 12:12:25;;;;;;;24.25;5.57;;;;;;;37.64;26.70;96911.19;4873652;29;20045;-68
2022/05/13 12:15:38;;;;;;;25.87;6.60;;;;;;;37.63;26.19;96920.31;4876594;29;20045;-67
2022/05/13 12:18:29;;;;;;;23.17;6.05;;;;;;;37.50;27.36;96916.22;4880059;29;20115;-67
2022/05/13 12:21:21;;;;;;;23.02;6.28;;;;;;;37.54;24.65;96922.66;4895096;29;20049;-67
2022/05/13 12:24:19;;;;;;;23.67;5.38;;;;;;;37.57;25.33;96922.16;4885365;29;20466;-67
2022/05/13 12:27:13;;;;;;;18.17;5.93;;;;;;;37.60;25.70;96927.03;4868169;29;20056;-67
2022/05/13 12:30:11;;;;;;;21.45;6.25;;;;;;;37.47;25.62;96916.72;4867033;29;20072;-70
2022/05/13 12:33:28;;;;;;;16.00;6.00;;;;;;;37.36;26.74;96910.47;4859354;29;20045;-66
2022/05/13 12:39:52;;;;;;;23.95;6.45;;;;;;;37.24;25.08;96919.81;4911497;29;20538;-66
2022/05/13 12:43:08;;;;;;;21.88;5.57;;;;;;;37.18;25.17;96924.34;4906066;29;20048;-65
2022/05/13 12:46:15;;;;;;;21.15;5.63;;;;;;;36.99;25.63;96920.41;4900135;29;20048;-66
2022/05/13 12:49:09;;;;;;;24.58;7.03;;;;;;;36.86;27.24;96915.47;4900390;29;20052;-66
2022/05/13 12:52:22;;;;;;;21.58;5.88;;;;;;;36.69;27.31;96919.09;4901963;29;20054;-65
2022/05/13 12:55:22;;;;;;;23.20;6.72;;;;;;;36.50;28.72;96917.81;4901942;29;20081;-66
2022/05/13 12:58:06;;;;;;;19.02;6.00;;;;;;;36.38;29.14;96909.13;4897972;29;20056;-66
2022/05/13 13:00:57;;;;;;;16.52;5.50;;;;;;;36.28;29.10;96919.75;4899819;29;20056;-66
2022/05/13 13:03:43;;;;;;;38.28;9.05;;;;;;;36.16;29.28;96919.06;4898337;29;20063;-67
2022/05/13 13:06:49;;;;;;;25.60;7.50;;;;;;;36.01;29.83;96925.03;4907187;29;20114;-66
2022/05/13 13:09:44;;;;;;;22.20;6.72;;;;;;;35.86;30.44;96927.53;4899686;29;20068;-65
2022/05/13 13:12:41;;;;;;;21.60;6.63;;;;;;;35.71;30.68;96924.66;4891605;29;20072;-67
2022/05/13 13:15:58;;;;;;;27.08;6.53;;;;;;;35.54;30.39;96927.38;4896248;29;20056;-66
2022/05/13 13:18:47;;;;;;;17.75;5.55;;;;;;;35.40;30.86;96931.47;4903785;29;20049;-67
2022/05/13 13:21:30;;;;;;;27.05;8.02;;;;;;;35.24;32.29;96935.81;4909980;29;20067;-69
2022/05/13 13:24:27;;;;;;;23.80;6.03;;;;;;;35.03;32.45;96934.66;4893788;29;20372;-66
2022/05/13 13:27:18;;;;;;;22.00;6.60;;;;;;;34.85;32.36;96935.72;4890991;29;20044;-67
2022/05/13 13:30:09;;;;;;;24.25;7.60;;;;;;;34.72;33.61;96927.16;4900645;29;20047;-66
2022/05/13 13:33:06;;;;;;;27.77;7.07;;;;;;;34.58;33.25;96936.53;4901820;29;20166;-68
2022/05/13 13:35:54;;;;;;;26.70;6.72;;;;;;;34.45;34.42;96935.78;4901951;29;20072;-67
2022/05/13 13:38:56;;;;;;;30.35;7.15;;;;;;;34.28;34.00;96931.44;4897084;29;20063;-67
2022/05/13 13:41:57;;;;;;;26.30;7.15;;;;;;;34.12;35.17;96933.81;4898137;29;20115;-69